Terminal Aerodrome Forecast
Issued by NWS

Home | Current Version | Previous Version | Graphics & Text | Print | Product List | Glossary On
Versions: 1 2 3 4 5 6 7 8 9 10 11 12 13
000
FTUS43 KMPX 031120
TAFRNH
TAF
KRNH 031120Z 0312/0412 25007KT P6SM SCT250
     FM031500 26016G24KT P6SM SCT120 BKN250
     FM032100 30017G25KT 6SM -SHRA BR VCTS BKN050CB BKN100
     FM040000 34010G17KT P6SM SCT060
     FM040300 25007KT P6SM SKC=

USA.gov is the U.S. government's official web portal to all federal, state and local government web resources and services.